createdAt,value
2018-05-13T00:02:08.333Z,15.19
2018-05-13T00:04:39.181Z,15.08
2018-05-13T00:07:10.032Z,15.02
2018-05-13T00:09:40.945Z,14.98
2018-05-13T00:12:11.750Z,14.96
2018-05-13T00:14:42.533Z,15.03
2018-05-13T00:17:13.317Z,15.02
2018-05-13T00:19:44.132Z,14.88
2018-05-13T00:22:15.004Z,14.85
2018-05-13T00:24:45.840Z,14.83
2018-05-13T00:27:16.653Z,14.80
2018-05-13T00:29:47.461Z,14.86
2018-05-13T00:32:18.227Z,14.72
2018-05-13T00:34:49.008Z,14.65
2018-05-13T00:37:19.814Z,14.60
2018-05-13T00:39:50.692Z,14.69
2018-05-13T00:42:21.541Z,14.83
2018-05-13T00:44:53.318Z,14.73
2018-05-13T00:47:24.119Z,14.68
2018-05-13T00:49:54.976Z,14.54
2018-05-13T00:52:25.787Z,14.54
2018-05-13T00:54:56.576Z,14.49
2018-05-13T00:57:27.387Z,14.62
2018-05-13T00:59:58.234Z,14.59
2018-05-13T01:02:29.049Z,14.57
2018-05-13T01:04:59.851Z,14.56
2018-05-13T01:07:30.680Z,14.50
2018-05-13T01:10:01.513Z,14.51
2018-05-13T01:12:32.294Z,14.52
2018-05-13T01:15:03.104Z,14.50
2018-05-13T01:17:33.887Z,14.49
2018-05-13T01:20:04.670Z,14.56
2018-05-13T01:22:35.484Z,14.48
2018-05-13T01:25:06.278Z,14.52
2018-05-13T01:27:37.090Z,14.41
2018-05-13T01:30:07.920Z,14.29
2018-05-13T01:32:38.723Z,14.26
2018-05-13T01:35:09.548Z,14.22
2018-05-13T01:37:40.374Z,14.18
2018-05-13T01:40:11.207Z,14.17
2018-05-13T01:42:48.939Z,14.14
2018-05-13T01:45:19.773Z,14.17
2018-05-13T01:47:50.591Z,14.09
2018-05-13T01:50:21.401Z,14.11
2018-05-13T01:52:52.232Z,14.18
2018-05-13T01:55:23.083Z,14.11
2018-05-13T01:57:53.880Z,14.08
2018-05-13T02:00:24.708Z,13.97
2018-05-13T02:02:55.501Z,13.81
2018-05-13T02:05:26.367Z,13.85
2018-05-13T02:07:57.196Z,13.83
2018-05-13T02:10:28.014Z,13.86
2018-05-13T02:12:58.820Z,13.84
2018-05-13T02:15:29.656Z,13.88
2018-05-13T02:18:00.483Z,13.80
2018-05-13T02:20:31.371Z,13.85
2018-05-13T02:23:02.194Z,13.82
2018-05-13T02:25:33.004Z,13.81
2018-05-13T02:28:03.796Z,13.76
2018-05-13T02:30:34.624Z,13.92
2018-05-13T02:33:05.423Z,13.91
2018-05-13T02:35:36.352Z,13.89
2018-05-13T02:38:07.203Z,13.95
2018-05-13T02:40:38.118Z,13.98
2018-05-13T02:43:08.908Z,13.92
2018-05-13T02:45:39.741Z,13.89
2018-05-13T02:48:17.533Z,13.87
2018-05-13T02:50:48.458Z,13.95
2018-05-13T02:53:19.280Z,13.96
2018-05-13T02:55:50.187Z,14.09
2018-05-13T03:01:06.979Z,14.27
2018-05-13T03:03:37.783Z,14.35
2018-05-13T03:06:08.648Z,14.36
2018-05-13T03:08:39.445Z,14.41
2018-05-13T03:11:10.291Z,14.39
2018-05-13T03:13:41.143Z,14.39
2018-05-13T03:16:12.019Z,14.29
2018-05-13T03:18:42.972Z,14.32
2018-05-13T03:21:13.855Z,14.20
2018-05-13T03:23:44.677Z,14.19
2018-05-13T03:26:15.565Z,14.34
2018-05-13T03:28:46.460Z,14.34
2018-05-13T03:31:17.272Z,14.26
2018-05-13T03:33:48.140Z,14.35
2018-05-13T03:36:18.964Z,14.38
2018-05-13T03:38:49.765Z,14.48
2018-05-13T03:41:20.609Z,14.53
2018-05-13T03:43:51.433Z,14.52
2018-05-13T03:46:22.245Z,14.50
2018-05-13T03:48:53.028Z,14.42
2018-05-13T03:51:23.824Z,14.38
2018-05-13T03:53:54.644Z,14.40
2018-05-13T03:56:25.716Z,14.48
2018-05-13T03:58:56.490Z,14.46
2018-05-13T04:01:27.300Z,14.59
2018-05-13T04:03:58.083Z,14.60
2018-05-13T04:06:28.916Z,14.63
2018-05-13T04:09:11.866Z,14.69
2018-05-13T04:11:54.908Z,14.82
2018-05-13T04:14:37.922Z,14.81
2018-05-13T04:17:08.750Z,14.93
2018-05-13T04:19:39.570Z,14.95
2018-05-13T04:22:10.380Z,15.12
2018-05-13T04:24:41.172Z,15.15
2018-05-13T04:27:11.984Z,15.14
2018-05-13T04:29:42.770Z,15.25
2018-05-13T04:32:13.596Z,15.33
2018-05-13T04:34:44.416Z,15.45
2018-05-13T04:37:15.241Z,15.50
2018-05-13T04:39:46.086Z,15.57
2018-05-13T04:42:16.916Z,15.62
2018-05-13T04:44:47.712Z,15.71
2018-05-13T04:47:18.527Z,15.96
2018-05-13T04:49:49.300Z,16.04
2018-05-13T04:52:20.129Z,16.16
2018-05-13T04:54:50.997Z,16.94
2018-05-13T04:57:21.926Z,18.46
2018-05-13T04:59:52.754Z,19.92
2018-05-13T05:02:23.557Z,21.39
2018-05-13T05:04:54.337Z,21.76
2018-05-13T05:07:25.165Z,21.84
2018-05-13T05:09:55.992Z,22.19
2018-05-13T05:12:26.824Z,22.89
2018-05-13T05:14:57.628Z,24.42
2018-05-13T05:17:28.443Z,24.51
2018-05-13T05:19:59.243Z,23.93
2018-05-13T05:22:30.042Z,24.16
2018-05-13T05:25:00.841Z,24.31
2018-05-13T05:27:31.643Z,24.79
2018-05-13T05:30:02.432Z,25.99
2018-05-13T05:32:33.243Z,25.44
2018-05-13T05:35:04.081Z,26.85
2018-05-13T05:37:34.901Z,26.42
2018-05-13T05:40:05.808Z,26.60
2018-05-13T05:42:36.843Z,26.38
2018-05-13T05:45:07.619Z,26.98
2018-05-13T05:47:38.439Z,28.11
2018-05-13T05:50:09.243Z,28.41
2018-05-13T05:52:40.158Z,28.95
2018-05-13T05:55:10.975Z,28.46
2018-05-13T05:57:41.792Z,28.81
2018-05-13T06:00:12.697Z,28.71
2018-05-13T06:02:43.539Z,28.74
2018-05-13T06:05:14.321Z,27.80
2018-05-13T06:07:45.140Z,28.20
2018-05-13T06:10:15.947Z,28.92
2018-05-13T06:12:46.841Z,29.95
2018-05-13T06:15:17.646Z,30.05
2018-05-13T06:17:48.452Z,29.54
2018-05-13T06:20:19.262Z,30.24
2018-05-13T06:22:50.117Z,29.45
2018-05-13T06:25:24.683Z,29.66
2018-05-13T06:27:55.552Z,30.69
2018-05-13T06:30:33.338Z,30.98
2018-05-13T06:33:04.156Z,31.28
2018-05-13T06:35:34.970Z,31.99
2018-05-13T06:38:05.926Z,30.87
2018-05-13T06:40:36.914Z,31.49
2018-05-13T06:43:08.051Z,30.97
2018-05-13T06:45:38.920Z,31.56
2018-05-13T06:48:09.809Z,32.19
2018-05-13T06:50:40.633Z,30.02
2018-05-13T06:53:11.540Z,30.15
2018-05-13T06:55:42.374Z,30.50
2018-05-13T06:58:13.202Z,31.36
2018-05-13T07:00:44.050Z,32.33
2018-05-13T07:03:14.925Z,31.81
2018-05-13T07:05:45.692Z,31.42
2018-05-13T07:08:16.497Z,30.62
2018-05-13T07:10:47.297Z,30.13
2018-05-13T07:13:18.088Z,31.47
2018-05-13T07:15:48.913Z,31.64
2018-05-13T07:18:19.748Z,30.92
2018-05-13T07:20:50.604Z,30.67
2018-05-13T07:23:21.466Z,31.11
2018-05-13T07:25:52.283Z,31.59
2018-05-13T07:28:23.079Z,30.79
2018-05-13T07:30:53.942Z,31.73
2018-05-13T07:33:24.809Z,31.75
2018-05-13T07:35:55.686Z,32.14
2018-05-13T07:38:26.574Z,32.37
2018-05-13T07:40:57.531Z,30.36
2018-05-13T07:43:28.427Z,29.37
2018-05-13T07:45:59.338Z,30.69
2018-05-13T07:48:31.350Z,30.50
2018-05-13T07:51:02.364Z,30.73
2018-05-13T07:53:33.325Z,30.48
2018-05-13T07:56:04.195Z,30.58
2018-05-13T07:58:35.117Z,30.20
2018-05-13T08:01:06.009Z,29.58
2018-05-13T08:03:36.905Z,29.08
2018-05-13T08:06:07.885Z,29.49
2018-05-13T08:08:38.709Z,29.76
2018-05-13T08:11:09.589Z,30.01
2018-05-13T08:13:40.448Z,30.08
2018-05-13T08:16:11.284Z,29.67
2018-05-13T08:18:42.167Z,29.23
2018-05-13T08:21:12.956Z,29.76
2018-05-13T08:23:43.766Z,31.15
2018-05-13T08:26:14.552Z,31.00
2018-05-13T08:28:45.376Z,31.76
2018-05-13T08:31:16.220Z,30.29
2018-05-13T08:33:47.032Z,32.05
2018-05-13T08:36:17.973Z,31.08
2018-05-13T08:38:48.846Z,31.70
2018-05-13T08:41:19.686Z,30.53
2018-05-13T08:43:50.496Z,30.50
2018-05-13T08:46:21.318Z,30.11
2018-05-13T08:48:52.142Z,30.58
2018-05-13T08:51:22.916Z,30.32
2018-05-13T08:53:53.762Z,29.06
2018-05-13T08:56:24.587Z,30.39
2018-05-13T08:58:55.420Z,31.44
2018-05-13T09:01:26.224Z,32.11
2018-05-13T09:03:57.028Z,31.44
2018-05-13T09:06:27.816Z,30.86
2018-05-13T09:08:58.836Z,30.89
2018-05-13T09:11:29.648Z,30.25
2018-05-13T09:14:00.515Z,30.13
2018-05-13T09:16:31.340Z,29.37
2018-05-13T09:19:02.164Z,28.55
2018-05-13T09:21:32.964Z,29.16
2018-05-13T09:24:03.815Z,30.16
2018-05-13T09:26:34.643Z,30.10
2018-05-13T09:29:05.456Z,30.96
2018-05-13T09:31:36.244Z,29.79
2018-05-13T09:34:07.058Z,28.83
2018-05-13T09:36:37.872Z,30.34
2018-05-13T09:39:08.701Z,30.57
2018-05-13T09:41:39.525Z,30.89
2018-05-13T09:44:10.349Z,31.07
2018-05-13T09:46:41.145Z,30.62
2018-05-13T09:49:12.019Z,29.12
2018-05-13T09:51:42.845Z,29.83
2018-05-13T09:54:20.669Z,30.42
2018-05-13T09:56:51.475Z,30.18
2018-05-13T09:59:22.293Z,30.63
2018-05-13T10:01:53.073Z,31.00
2018-05-13T10:04:23.864Z,30.25
2018-05-13T10:06:54.664Z,29.22
2018-05-13T10:09:25.610Z,29.33
2018-05-13T10:11:56.378Z,28.44
2018-05-13T10:14:27.206Z,28.86
2018-05-13T10:16:57.993Z,29.70
2018-05-13T10:19:28.892Z,29.85
2018-05-13T10:21:59.611Z,29.43
2018-05-13T10:24:30.424Z,29.17
2018-05-13T10:27:01.248Z,29.49
2018-05-13T10:29:32.051Z,29.75
2018-05-13T10:32:02.824Z,29.12
2018-05-13T10:34:33.683Z,29.39
2018-05-13T10:37:04.501Z,30.75
2018-05-13T10:39:35.396Z,30.80
2018-05-13T10:42:06.193Z,30.80
2018-05-13T10:44:37.260Z,29.91
2018-05-13T10:47:08.233Z,28.93
2018-05-13T10:49:39.363Z,28.72
2018-05-13T10:52:10.173Z,29.46
2018-05-13T10:54:41.017Z,30.32
2018-05-13T10:57:12.064Z,30.34
2018-05-13T10:59:42.907Z,31.04
2018-05-13T11:02:14.737Z,31.69
2018-05-13T11:04:45.809Z,31.62
2018-05-13T11:07:17.570Z,31.08
2018-05-13T11:09:48.476Z,31.60
2018-05-13T11:12:19.258Z,31.18
2018-05-13T11:14:50.164Z,31.81
2018-05-13T11:17:20.921Z,31.75
2018-05-13T11:19:51.777Z,30.38
2018-05-13T11:22:22.601Z,29.39
2018-05-13T11:24:53.451Z,29.57
2018-05-13T11:27:24.243Z,29.69
2018-05-13T11:29:55.510Z,28.94
2018-05-13T11:32:26.305Z,30.26
2018-05-13T11:34:57.112Z,31.47
2018-05-13T11:37:27.924Z,30.68
2018-05-13T11:39:58.875Z,30.70
2018-05-13T11:42:29.535Z,31.57
2018-05-13T11:45:00.360Z,32.61
2018-05-13T11:47:31.203Z,33.90
2018-05-13T11:50:02.050Z,32.04
2018-05-13T11:52:33.187Z,31.82
2018-05-13T11:55:04.054Z,33.49
2018-05-13T11:57:34.915Z,33.44
2018-05-13T12:00:05.764Z,34.31
2018-05-13T12:02:36.558Z,34.67
2018-05-13T12:05:07.410Z,34.88
2018-05-13T12:07:38.175Z,35.01
2018-05-13T12:10:08.991Z,35.23
2018-05-13T12:12:39.774Z,36.14
2018-05-13T12:15:10.729Z,34.98
2018-05-13T12:17:41.430Z,33.84
2018-05-13T12:20:12.228Z,34.85
2018-05-13T12:22:43.053Z,36.84
2018-05-13T12:25:13.907Z,36.93
2018-05-13T12:27:44.774Z,35.70
2018-05-13T12:30:15.588Z,35.91
2018-05-13T12:32:46.400Z,33.70
2018-05-13T12:35:17.243Z,34.75
2018-05-13T12:37:49.124Z,34.12
2018-05-13T12:40:19.937Z,33.56
2018-05-13T12:42:50.729Z,33.57
2018-05-13T12:45:21.540Z,33.91
2018-05-13T12:47:52.360Z,33.99
2018-05-13T12:50:23.196Z,34.91
2018-05-13T12:52:54.033Z,34.50
2018-05-13T12:55:24.849Z,34.95
2018-05-13T12:57:55.657Z,36.64
2018-05-13T13:00:26.485Z,36.87
2018-05-13T13:02:57.276Z,37.94
2018-05-13T13:05:28.069Z,36.55
2018-05-13T13:07:58.896Z,35.30
2018-05-13T13:10:29.708Z,35.30
2018-05-13T13:13:00.714Z,35.33
2018-05-13T13:15:31.456Z,35.87
2018-05-13T13:18:02.300Z,36.29
2018-05-13T13:20:33.117Z,37.44
2018-05-13T13:23:03.947Z,37.40
2018-05-13T13:25:34.850Z,37.28
2018-05-13T13:28:05.682Z,36.72
2018-05-13T13:30:36.545Z,32.41
2018-05-13T13:33:08.327Z,30.04
2018-05-13T13:35:39.370Z,29.46
2018-05-13T13:38:10.188Z,28.39
2018-05-13T13:40:41.186Z,28.69
2018-05-13T13:46:02.484Z,28.21
2018-05-13T13:48:33.256Z,28.04
2018-05-13T13:51:04.040Z,28.76
2018-05-13T13:53:34.943Z,28.69
2018-05-13T13:56:05.662Z,27.49
2018-05-13T13:58:36.468Z,26.16
2018-05-13T14:01:07.274Z,25.67
2018-05-13T14:03:38.059Z,25.36
2018-05-13T14:06:08.883Z,25.01
2018-05-13T14:08:39.671Z,25.02
2018-05-13T14:11:10.521Z,25.04
2018-05-13T14:13:41.300Z,24.68
2018-05-13T14:16:12.226Z,24.89
2018-05-13T14:18:43.028Z,24.85
2018-05-13T14:21:13.833Z,24.48
2018-05-13T14:23:51.712Z,24.21
2018-05-13T14:26:22.494Z,24.18
2018-05-13T14:28:53.382Z,24.18
2018-05-13T14:31:24.348Z,24.09
2018-05-13T14:33:55.274Z,24.33
2018-05-13T14:36:26.109Z,25.00
2018-05-13T14:38:56.888Z,25.11
2018-05-13T14:41:27.755Z,24.47
2018-05-13T14:43:58.628Z,24.59
2018-05-13T14:46:29.491Z,25.10
2018-05-13T14:49:00.491Z,26.02
2018-05-13T14:51:31.314Z,26.37
2018-05-13T14:54:03.374Z,25.89
2018-05-13T14:56:34.172Z,25.85
2018-05-13T14:59:04.997Z,25.40
2018-05-13T15:01:35.977Z,25.69
2018-05-13T15:04:07.020Z,25.44
2018-05-13T15:06:37.925Z,24.72
2018-05-13T15:09:08.753Z,24.56
2018-05-13T15:11:39.643Z,24.16
2018-05-13T15:14:10.436Z,23.90
2018-05-13T15:16:41.456Z,23.47
2018-05-13T15:19:12.232Z,23.44
2018-05-13T15:21:43.048Z,23.53
2018-05-13T15:24:14.024Z,23.59
2018-05-13T15:26:44.836Z,23.33
2018-05-13T15:29:15.764Z,23.52
2018-05-13T15:31:46.612Z,23.48
2018-05-13T15:34:17.440Z,23.52
2018-05-13T15:36:48.511Z,23.51
2018-05-13T15:39:19.324Z,23.49
2018-05-13T15:41:50.200Z,23.61
2018-05-13T15:44:20.999Z,23.66
2018-05-13T15:46:52.119Z,23.64
2018-05-13T15:49:23.312Z,23.66
2018-05-13T15:51:54.117Z,23.80
2018-05-13T15:54:24.915Z,23.72
2018-05-13T15:56:55.768Z,23.86
2018-05-13T15:59:26.887Z,23.92
2018-05-13T16:01:57.696Z,23.88
2018-05-13T16:04:28.493Z,23.95
2018-05-13T16:06:59.288Z,24.14
2018-05-13T16:09:30.446Z,24.48
2018-05-13T16:12:01.636Z,25.63
2018-05-13T16:14:32.464Z,26.15
2018-05-13T16:17:03.288Z,27.16
2018-05-13T16:19:34.081Z,27.84
2018-05-13T16:22:04.889Z,28.21
2018-05-13T16:24:35.698Z,29.09
2018-05-13T16:27:06.492Z,27.79
2018-05-13T16:29:37.416Z,27.59
2018-05-13T16:32:08.253Z,26.80
2018-05-13T16:34:39.108Z,26.26
2018-05-13T16:37:09.958Z,25.94
2018-05-13T16:39:40.788Z,25.90
2018-05-13T16:42:11.627Z,25.28
2018-05-13T16:44:44.210Z,25.29
2018-05-13T16:47:15.108Z,25.02
2018-05-13T16:49:45.955Z,24.75
2018-05-13T16:52:16.785Z,24.63
2018-05-13T16:54:47.628Z,24.46
2018-05-13T16:57:19.541Z,24.44
2018-05-13T16:59:50.384Z,24.34
2018-05-13T17:02:21.205Z,24.08
2018-05-13T17:04:53.102Z,24.00
2018-05-13T17:07:23.957Z,23.96
2018-05-13T17:09:54.804Z,23.78
2018-05-13T17:12:25.646Z,23.65
2018-05-13T17:14:56.485Z,23.40
2018-05-13T17:17:27.520Z,23.40
2018-05-13T17:19:58.327Z,23.39
2018-05-13T17:22:29.209Z,23.31
2018-05-13T17:25:00.049Z,23.22
2018-05-13T17:27:31.017Z,23.23
2018-05-13T17:30:01.956Z,23.15
2018-05-13T17:32:32.890Z,23.11
2018-05-13T17:35:03.737Z,23.06
2018-05-13T17:37:34.581Z,22.99
2018-05-13T17:40:05.399Z,22.97
2018-05-13T17:42:36.237Z,22.90
2018-05-13T17:45:07.084Z,22.90
2018-05-13T17:47:38.017Z,22.87
2018-05-13T17:50:08.865Z,22.76
2018-05-13T17:52:39.697Z,22.74
2018-05-13T17:55:10.496Z,22.72
2018-05-13T17:57:41.403Z,22.65
2018-05-13T18:00:12.120Z,22.59
2018-05-13T18:02:43.417Z,22.53
2018-05-13T18:05:14.284Z,22.42
2018-05-13T18:07:45.172Z,22.35
2018-05-13T18:10:16.022Z,22.25
2018-05-13T18:12:46.877Z,22.10
2018-05-13T18:15:17.862Z,22.05
2018-05-13T18:17:48.664Z,22.08
2018-05-13T18:20:19.455Z,21.86
2018-05-13T18:22:50.270Z,21.73
2018-05-13T18:25:21.108Z,21.75
2018-05-13T18:27:51.935Z,21.77
2018-05-13T18:30:22.732Z,21.98
2018-05-13T18:32:53.570Z,22.03
2018-05-13T18:35:24.392Z,21.99
2018-05-13T18:37:55.245Z,21.87
2018-05-13T18:40:26.091Z,21.76
2018-05-13T18:42:56.921Z,21.58
2018-05-13T18:45:27.807Z,21.46
2018-05-13T18:47:58.868Z,21.31
2018-05-13T18:50:29.859Z,21.25
2018-05-13T18:53:00.719Z,21.14
2018-05-13T18:55:31.545Z,21.04
2018-05-13T18:58:02.377Z,20.88
2018-05-13T19:00:33.198Z,20.72
2018-05-13T19:03:04.416Z,20.59
2018-05-13T19:05:35.383Z,20.45
2018-05-13T19:08:06.239Z,20.32
2018-05-13T19:10:37.073Z,20.22
2018-05-13T19:13:07.897Z,20.07
2018-05-13T19:15:38.869Z,20.01
2018-05-13T19:18:09.816Z,19.97
2018-05-13T19:20:40.645Z,19.91
2018-05-13T19:23:11.879Z,19.90
2018-05-13T19:25:42.812Z,19.81
2018-05-13T19:28:13.705Z,19.78
2018-05-13T19:30:44.645Z,19.76
2018-05-13T19:33:15.468Z,19.65
2018-05-13T19:35:46.284Z,19.61
2018-05-13T19:38:17.143Z,19.62
2018-05-13T19:40:47.945Z,19.56
2018-05-13T19:43:18.864Z,19.56
2018-05-13T19:45:49.872Z,19.54
2018-05-13T19:48:20.747Z,19.50
2018-05-13T19:50:51.573Z,19.50
2018-05-13T19:53:22.401Z,19.55
2018-05-13T19:55:53.250Z,19.55
2018-05-13T19:58:24.095Z,19.52
2018-05-13T20:00:54.896Z,19.58
2018-05-13T20:03:25.920Z,19.59
2018-05-13T20:05:56.619Z,19.58
2018-05-13T20:08:27.439Z,19.59
2018-05-13T20:10:58.268Z,19.56
2018-05-13T20:13:29.109Z,19.52
2018-05-13T20:15:59.996Z,19.55
2018-05-13T20:18:30.826Z,19.47
2018-05-13T20:21:01.734Z,19.39
2018-05-13T20:23:32.580Z,19.39
2018-05-13T20:26:03.465Z,19.26
2018-05-13T20:28:34.296Z,19.14
2018-05-13T20:31:05.104Z,19.19
2018-05-13T20:33:35.917Z,19.19
2018-05-13T20:36:06.758Z,19.12
2018-05-13T20:38:37.623Z,19.17
2018-05-13T20:41:08.424Z,19.22
2018-05-13T20:43:39.236Z,19.21
2018-05-13T20:46:10.102Z,19.27
2018-05-13T20:48:40.922Z,19.24
2018-05-13T20:51:11.809Z,19.31
2018-05-13T20:53:42.827Z,19.28
2018-05-13T20:56:13.980Z,19.13
2018-05-13T20:58:45.148Z,19.20
2018-05-13T21:01:17.053Z,19.24
2018-05-13T21:03:47.900Z,19.15
2018-05-13T21:06:18.861Z,19.05
2018-05-13T21:08:49.793Z,18.98
2018-05-13T21:11:20.658Z,18.94
2018-05-13T21:13:51.559Z,19.04
2018-05-13T21:16:22.389Z,19.02
2018-05-13T21:18:53.354Z,19.03
2018-05-13T21:21:24.236Z,19.09
2018-05-13T21:23:55.083Z,19.09
2018-05-13T21:26:25.932Z,19.10
2018-05-13T21:28:56.772Z,19.14
2018-05-13T21:31:27.816Z,19.38
2018-05-13T21:33:58.949Z,19.39
2018-05-13T21:36:37.114Z,19.42
2018-05-13T21:39:07.951Z,19.45
2018-05-13T21:41:38.749Z,19.45
2018-05-13T21:44:09.565Z,19.51
2018-05-13T21:46:40.413Z,19.58
2018-05-13T21:49:11.389Z,19.49
2018-05-13T21:51:43.847Z,19.58
2018-05-13T21:54:14.681Z,19.52
2018-05-13T21:56:45.629Z,19.48
2018-05-13T21:59:16.500Z,19.45
2018-05-13T22:01:47.346Z,19.35
2018-05-13T22:04:18.207Z,19.26
2018-05-13T22:06:49.033Z,19.09
2018-05-13T22:09:19.847Z,19.01
2018-05-13T22:11:50.647Z,18.93
2018-05-13T22:14:21.466Z,18.83
2018-05-13T22:16:52.324Z,18.88
2018-05-13T22:19:23.195Z,18.86
2018-05-13T22:21:54.199Z,18.80
2018-05-13T22:24:25.379Z,18.69
2018-05-13T22:26:56.231Z,18.66
2018-05-13T22:29:27.614Z,18.64
2018-05-13T22:31:58.650Z,18.60
2018-05-13T22:34:29.692Z,18.57
2018-05-13T22:37:00.617Z,18.51
2018-05-13T22:39:31.713Z,18.51
2018-05-13T22:42:02.535Z,18.47
2018-05-13T22:44:33.366Z,18.51
2018-05-13T22:47:04.288Z,18.53
2018-05-13T22:49:35.493Z,18.54
2018-05-13T22:52:06.392Z,18.51
2018-05-13T22:54:37.272Z,18.43
2018-05-13T22:57:08.614Z,18.34
2018-05-13T22:59:39.732Z,18.37
2018-05-13T23:02:10.595Z,18.34
2018-05-13T23:04:41.468Z,18.30
2018-05-13T23:07:12.292Z,18.19
2018-05-13T23:09:43.136Z,18.12
2018-05-13T23:12:14.007Z,18.08
2018-05-13T23:14:45.196Z,18.05
2018-05-13T23:17:16.008Z,17.89
2018-05-13T23:19:46.861Z,17.89
2018-05-13T23:22:30.113Z,17.83
2018-05-13T23:25:00.970Z,17.72
2018-05-13T23:27:31.746Z,17.61
2018-05-13T23:30:02.561Z,17.50
2018-05-13T23:32:33.389Z,17.43
2018-05-13T23:35:04.192Z,17.45
2018-05-13T23:37:34.995Z,17.36
2018-05-13T23:40:05.852Z,17.30
2018-05-13T23:42:36.668Z,17.26
2018-05-13T23:45:07.518Z,17.23
2018-05-13T23:47:38.387Z,17.12
2018-05-13T23:50:09.239Z,17.18
2018-05-13T23:52:40.049Z,17.13
2018-05-13T23:55:10.868Z,17.06
2018-05-13T23:57:41.672Z,17.01
